createdAt,value
2022-08-04T00:03:20.683Z,1.90
2022-08-04T00:08:34.786Z,1.80
2022-08-04T00:13:59.815Z,1.95
2022-08-04T00:19:06.621Z,1.88
2022-08-04T00:24:13.341Z,1.90
2022-08-04T00:29:17.139Z,2.08
2022-08-04T00:34:21.114Z,1.30
2022-08-04T00:39:26.882Z,1.90
2022-08-04T00:44:44.169Z,1.50
2022-08-04T00:50:06.121Z,1.20
2022-08-04T00:55:28.993Z,1.02
2022-08-04T01:00:43.209Z,1.33
2022-08-04T01:05:58.270Z,1.38
2022-08-04T01:11:11.594Z,1.33
2022-08-04T01:16:18.622Z,1.70
2022-08-04T01:21:58.434Z,1.70
2022-08-04T01:27:07.879Z,1.58
2022-08-04T01:32:20.939Z,1.23
2022-08-04T01:37:43.021Z,1.50
2022-08-04T01:42:46.630Z,1.70
2022-08-04T01:47:52.816Z,1.67
2022-08-04T01:52:57.197Z,1.60
2022-08-04T01:58:02.298Z,1.23
2022-08-04T02:03:06.850Z,1.40
2022-08-04T02:08:22.076Z,1.58
2022-08-04T02:13:35.489Z,1.33
2022-08-04T02:18:47.800Z,1.42
2022-08-04T02:23:55.183Z,1.60
2022-08-04T02:29:05.723Z,1.80
2022-08-04T02:34:17.699Z,1.75
2022-08-04T02:39:23.175Z,2.17
2022-08-04T02:44:29.502Z,1.58
2022-08-04T02:49:40.583Z,1.58
2022-08-04T02:54:46.115Z,1.38
2022-08-04T03:00:09.139Z,1.90
2022-08-04T03:05:18.573Z,1.80
2022-08-04T03:10:56.486Z,1.48
2022-08-04T03:16:38.713Z,2.10
2022-08-04T03:22:23.558Z,1.77
2022-08-04T03:27:49.102Z,1.70
2022-08-04T03:33:26.016Z,1.63
2022-08-04T03:39:09.433Z,1.65
2022-08-04T03:50:10.004Z,2.03
2022-08-04T03:55:43.493Z,1.50
2022-08-04T04:00:59.771Z,1.65
2022-08-04T04:06:29.268Z,1.60
2022-08-04T04:11:57.739Z,1.90
2022-08-04T04:17:14.986Z,1.63
2022-08-04T04:22:28.827Z,1.60
2022-08-04T04:27:45.046Z,1.63
2022-08-04T04:33:06.305Z,1.48
2022-08-04T04:38:41.350Z,2.00
2022-08-04T04:44:06.279Z,1.65
2022-08-04T04:49:18.999Z,1.58
2022-08-04T04:54:30.091Z,1.50
2022-08-04T04:59:38.311Z,1.70
2022-08-04T05:05:22.532Z,1.90
2022-08-04T05:10:40.735Z,2.10
2022-08-04T05:15:48.942Z,2.20
2022-08-04T05:20:57.975Z,1.95
2022-08-04T05:26:04.333Z,1.83
2022-08-04T05:31:13.794Z,1.67
2022-08-04T05:36:35.376Z,2.22
2022-08-04T05:41:48.184Z,1.88
2022-08-04T05:47:01.061Z,1.92
2022-08-04T05:52:06.796Z,2.10
2022-08-04T05:57:10.585Z,1.80
2022-08-04T06:02:17.165Z,1.52
2022-08-04T06:07:20.877Z,1.75
2022-08-04T06:12:28.061Z,1.80
2022-08-04T06:19:10.059Z,2.30
2022-08-04T06:23:04.067Z,2.03
2022-08-04T06:28:07.710Z,2.00
2022-08-04T06:33:24.892Z,1.67
2022-08-04T06:38:30.157Z,1.83
2022-08-04T06:43:33.972Z,1.80
2022-08-04T06:48:48.312Z,1.73
2022-08-04T06:53:51.808Z,1.80
2022-08-04T06:58:56.391Z,1.40
2022-08-04T07:04:01.603Z,1.40
2022-08-04T07:09:06.251Z,2.08
2022-08-04T07:14:10.630Z,2.20
2022-08-04T07:19:18.907Z,1.40
2022-08-04T07:24:30.132Z,1.60
2022-08-04T07:29:34.492Z,1.40
2022-08-04T07:34:40.142Z,1.80
2022-08-04T07:39:48.482Z,2.03
2022-08-04T07:44:52.012Z,1.95
2022-08-04T07:49:58.116Z,1.55
2022-08-04T07:55:01.742Z,1.90
2022-08-04T08:00:06.881Z,1.52
2022-08-04T08:05:14.330Z,1.48
2022-08-04T08:10:18.550Z,1.88
2022-08-04T08:15:23.050Z,1.58
2022-08-04T08:20:30.373Z,1.50
2022-08-04T08:25:34.776Z,1.67
2022-08-04T08:30:38.245Z,1.33
2022-08-04T08:35:54.943Z,1.33
2022-08-04T08:41:19.366Z,1.20
2022-08-04T08:46:58.222Z,1.30
2022-08-04T08:52:55.381Z,1.25
2022-08-04T08:58:07.449Z,1.55
2022-08-04T09:03:45.335Z,1.10
2022-08-04T09:09:05.577Z,1.67
2022-08-04T09:14:18.355Z,1.00
2022-08-04T09:19:38.607Z,1.02
2022-08-04T09:24:51.769Z,1.15
2022-08-04T09:30:03.264Z,1.33
2022-08-04T09:35:19.553Z,0.82
2022-08-04T09:40:31.106Z,0.88
2022-08-04T09:45:47.089Z,0.80
2022-08-04T09:50:58.086Z,0.80
2022-08-04T09:56:10.696Z,0.82
2022-08-04T10:01:23.106Z,1.02
2022-08-04T10:06:44.160Z,1.13
2022-08-04T10:12:04.563Z,0.88
2022-08-04T10:17:23.341Z,1.13
2022-08-04T10:22:44.692Z,0.80
2022-08-04T10:28:04.006Z,0.88
2022-08-04T10:33:13.898Z,0.98
2022-08-04T10:38:26.775Z,1.00
2022-08-04T10:43:47.539Z,0.52
2022-08-04T10:48:58.578Z,0.80
2022-08-04T10:54:04.200Z,0.70
2022-08-04T10:59:14.237Z,1.17
2022-08-04T11:04:27.707Z,0.73
2022-08-04T11:09:32.790Z,0.82
2022-08-04T11:14:43.602Z,0.70
2022-08-04T11:19:53.897Z,0.68
2022-08-04T11:25:10.393Z,0.80
2022-08-04T11:30:17.771Z,0.80
2022-08-04T11:35:29.287Z,0.88
2022-08-04T11:40:38.820Z,0.70
2022-08-04T11:45:52.114Z,1.02
2022-08-04T11:50:56.748Z,0.70
2022-08-04T11:56:07.563Z,0.68
2022-08-04T12:01:22.054Z,0.80
2022-08-04T12:06:31.842Z,0.70
2022-08-04T12:11:57.423Z,0.80
2022-08-04T12:17:03.375Z,1.48
2022-08-04T12:22:11.414Z,0.85
2022-08-04T12:27:19.067Z,1.08
2022-08-04T12:32:27.648Z,0.80
2022-08-04T12:49:32.892Z,0.93
2022-08-04T12:55:06.640Z,0.60
2022-08-04T13:02:11.015Z,0.73
2022-08-04T13:48:15.706Z,0.60
2022-08-04T13:53:32.655Z,1.50
2022-08-04T13:58:41.036Z,0.70
2022-08-04T14:03:58.345Z,1.10
2022-08-04T14:09:03.615Z,0.80
2022-08-04T14:14:20.367Z,0.90
2022-08-04T14:19:30.620Z,0.77
2022-08-04T14:24:39.179Z,1.08
2022-08-04T14:29:43.609Z,0.90
2022-08-04T14:34:53.369Z,0.80
2022-08-04T14:40:18.996Z,0.95
2022-08-04T14:45:32.798Z,1.08
2022-08-04T14:50:39.818Z,0.70
2022-08-04T14:55:46.382Z,0.65
2022-08-04T15:00:50.794Z,0.80
2022-08-04T15:06:05.307Z,0.95
2022-08-04T15:11:10.234Z,1.00
2022-08-04T15:16:28.048Z,1.05
2022-08-04T15:21:36.973Z,1.00
2022-08-04T15:26:44.193Z,0.70
2022-08-04T15:32:05.631Z,1.13
2022-08-04T15:37:17.086Z,0.90
2022-08-04T15:42:31.387Z,0.80
2022-08-04T15:47:34.651Z,1.55
2022-08-04T15:53:12.467Z,0.70
2022-08-04T15:58:17.398Z,1.20
2022-08-04T16:03:58.133Z,0.80
2022-08-04T16:09:06.562Z,0.85
2022-08-04T16:14:10.726Z,0.70
2022-08-04T16:19:24.259Z,0.75
2022-08-04T16:24:33.342Z,0.82
2022-08-04T16:29:39.287Z,0.90
2022-08-04T16:34:54.587Z,1.05
2022-08-04T16:40:44.239Z,1.02
2022-08-04T16:45:52.681Z,0.70
2022-08-04T16:51:05.115Z,0.70
2022-08-04T16:56:11.925Z,0.90
2022-08-04T17:01:21.854Z,1.23
2022-08-04T17:06:37.699Z,1.07
2022-08-04T17:11:41.678Z,1.35
2022-08-04T17:16:46.235Z,1.00
2022-08-04T17:21:50.224Z,0.93
2022-08-04T17:26:54.960Z,1.02
2022-08-04T17:31:59.678Z,1.17
2022-08-04T17:37:36.660Z,0.95
2022-08-04T17:42:30.719Z,0.80
2022-08-04T17:47:38.302Z,1.15
2022-08-04T17:52:45.518Z,1.08
2022-08-04T17:58:21.027Z,1.05
2022-08-04T18:03:29.964Z,0.97
2022-08-04T18:13:57.045Z,1.42
2022-08-04T18:19:12.237Z,1.35
2022-08-04T18:24:15.683Z,1.73
2022-08-04T18:29:31.886Z,1.40
2022-08-04T18:34:40.863Z,1.15
2022-08-04T18:40:21.365Z,1.45
2022-08-04T18:45:21.083Z,1.77
2022-08-04T18:51:00.348Z,1.80
2022-08-04T18:55:56.827Z,1.50
2022-08-04T19:06:07.502Z,1.83
2022-08-04T19:11:37.494Z,1.55
2022-08-04T19:16:35.059Z,1.73
2022-08-04T19:22:00.874Z,1.45
2022-08-04T19:27:08.075Z,1.25
2022-08-04T19:32:15.583Z,1.27
2022-08-04T19:37:58.337Z,2.40
2022-08-04T19:42:44.315Z,1.60
2022-08-04T19:48:16.267Z,1.67
2022-08-04T19:53:20.149Z,1.77
2022-08-04T19:58:41.906Z,1.60
2022-08-04T20:04:10.469Z,1.77
2022-08-04T20:14:39.578Z,1.73
2022-08-04T20:19:51.369Z,1.50
2022-08-04T20:25:17.965Z,1.77
2022-08-04T20:30:20.029Z,1.98
2022-08-04T20:40:50.741Z,1.77
2022-08-04T20:45:56.998Z,1.60
2022-08-04T20:51:02.815Z,1.80
2022-08-04T20:56:07.816Z,1.40
2022-08-04T21:01:11.173Z,1.50
2022-08-04T21:06:17.681Z,1.42
2022-08-04T21:11:22.253Z,1.27
2022-08-04T21:16:55.503Z,1.52
2022-08-04T21:21:52.239Z,1.48
2022-08-04T21:26:58.219Z,1.40
2022-08-04T21:32:12.753Z,1.50
2022-08-04T21:37:17.645Z,1.58
2022-08-04T21:42:28.091Z,1.20
2022-08-04T21:47:49.508Z,1.38
2022-08-04T21:52:53.006Z,1.80
2022-08-04T21:57:57.555Z,1.38
2022-08-04T22:03:03.357Z,1.30
2022-08-04T22:08:06.942Z,1.55
2022-08-04T22:13:24.692Z,1.65
2022-08-04T22:18:47.973Z,1.50
2022-08-04T22:23:51.812Z,1.50
2022-08-04T22:28:57.668Z,1.20
2022-08-04T22:34:01.500Z,1.80
2022-08-04T22:39:08.459Z,1.40
2022-08-04T22:44:15.959Z,1.75
2022-08-04T22:49:23.840Z,1.52
2022-08-04T22:54:35.227Z,1.10
2022-08-04T22:59:43.222Z,1.70
2022-08-04T23:04:49.948Z,1.83
2022-08-04T23:09:57.089Z,1.83
2022-08-04T23:15:01.828Z,1.80
2022-08-04T23:20:06.753Z,1.80
2022-08-04T23:25:33.192Z,1.90
2022-08-04T23:30:51.808Z,1.98
2022-08-04T23:35:58.113Z,1.67
2022-08-04T23:41:07.310Z,1.90
2022-08-04T23:46:18.596Z,2.03
2022-08-04T23:51:24.280Z,2.28
2022-08-04T23:56:27.983Z,2.08
